Autumn — V7QA6 — position and weather

sailwx.info

Track history (hours):
 
Tides and Currents Weather Stations Pressure Air Temp Water Temp Dewpoint Dewpoint Depression Visibility Wind Speed Wind Dir Waves Ship Positions

Autumn

Last reported at 2015-Feb-02 00:29 UTC. Time now 2015-Feb-02 01:53 UTC.
Position N 51°53' E 003°28'.

Length 129 m; draft 6.3 m.

Type: Tanker. MMSI: 538003323.

Date/timePositionNaut miles runAvg speedWind from/ knotsBaromVisibWave heightAir tempDewpointWater temp
2015-Feb-02 00:29N 51°53' E 003°28'0 0.1
2015-Feb-01 22:26N 51°53' E 003°28'0 0.0
2015-Feb-01 20:08N 51°53' E 003°27'0 0.0
2015-Feb-01 19:32N 51°53' E 003°27'0 0.0
2015-Feb-01 18:29N 51°53' E 003°27'0 0.0
2015-Feb-01 16:32N 51°53' E 003°27'0 0.0
2015-Feb-01 08:32N 51°53' E 003°27'0 0.0
2015-Feb-01 07:32N 51°53' E 003°27'0 0.0
2015-Feb-01 06:29N 51°53' E 003°27'6 6.5
2015-Feb-01 05:33N 51°49' E 003°20'8 8.2
2015-Feb-01 04:34N 51°41' E 003°17'1211.7
2015-Feb-01 03:33N 51°31' E 003°26'1010.1
2015-Feb-01 02:34N 51°26' E 003°41'1110.5
2015-Feb-01 01:34N 51°24' E 003°57'9 9.2
2015-Feb-01 00:33N 51°24' E 004°12'5 4.5
2015-Jan-31 23:33N 51°21' E 004°17'0 0.1
2015-Jan-31 19:28N 51°20' E 004°18'0 0.0
2015-Jan-31 18:10N 51°20' E 004°18'0 0.0
2015-Jan-31 14:28N 51°20' E 004°18'0 0.0
2015-Jan-31 12:25N 51°20' E 004°18'0 0.0
2015-Jan-31 10:28N 51°20' E 004°18'0 0.0
2015-Jan-31 09:28N 51°20' E 004°18'0 0.0
2015-Jan-31 08:19N 51°20' E 004°18'0 0.0
2015-Jan-31 06:10N 51°20' E 004°18'0 0.0
2015-Jan-31 05:31N 51°20' E 004°18'0 0.0
2015-Jan-31 03:31N 51°20' E 004°18'0 0.0
2015-Jan-31 02:13N 51°20' E 004°18'0 0.0
2015-Jan-31 01:25N 51°20' E 004°18'0 0.0
2015-Jan-31 00:07N 51°20' E 004°18'0 0.0
2015-Jan-30 23:13N 51°20' E 004°18'0 0.0
2015-Jan-30 22:25N 51°20' E 004°18'0 0.0
2015-Jan-30 21:33N 51°20' E 004°18'0 0.4
2015-Jan-30 20:33N 51°21' E 004°17'0 0.2
2015-Jan-30 19:34N 51°21' E 004°17'6 6.1
2015-Jan-30 18:33N 51°22' E 004°07'8 7.6
2015-Jan-30 17:33N 51°22' E 003°55'9 9.2
2015-Jan-30 16:33N 51°25' E 003°42'9 8.5
2015-Jan-30 15:33N 51°25' E 003°28'10 9.9
2015-Jan-30 14:33N 51°24' E 003°12'1111.3
2015-Jan-30 13:33N 51°22' E 002°54'9 8.7
2015-Jan-30 12:32N 51°22' E 002°40'1 0.9
2015-Jan-30 11:31N 51°22' E 002°39'1212.2
2015-Jan-30 10:30N 51°19' E 002°20'1414.3
2015-Jan-30 09:34N 51°12' E 002°01'1414.3
2015-Jan-30 08:34N 51°04' E 001°42'1514.6
2015-Jan-30 07:32N 50°52' E 001°28'281 8.2
2015-Jan-28 21:26N 51°56' W 005°50'1011.8
2015-Jan-28 20:33N 52°05' W 005°45'1312.6
2015-Jan-28 19:33N 52°17' W 005°38'96 8.6
2015-Jan-28 08:22N 53°34' W 004°01'911.0
2015-Jan-28 07:32N 53°34' W 003°46'1711.4
2015-Jan-28 06:05N 53°32' W 003°18'5 8.9
2015-Jan-28 05:33N 53°32' W 003°11'1110.5
2015-Jan-28 04:33N 53°23' W 002°60'4 4.4
2015-Jan-28 03:33N 53°19' W 002°57'3 3.0
2015-Jan-28 02:33N 53°17' W 002°53'  
2015-Jan-24 04:27N 53°17' W 002°52'3 3.9
2015-Jan-24 03:33N 53°19' W 002°57'3 3.1
2015-Jan-24 02:33N 53°22' W 002°59'7 6.9
2015-Jan-24 01:33N 53°28' W 003°04'7 6.8
2015-Jan-24 00:33N 53°31' W 003°15'7 6.3
2015-Jan-23 23:29N 53°32' W 003°26'2 2.4
2015-Jan-23 22:29N 53°32' W 003°22'1 1.3
2015-Jan-23 21:33N 53°30' W 003°22'3 2.4
2015-Jan-23 20:28N 53°29' W 003°26'0 0.0
2015-Jan-23 19:10N 53°29' W 003°26'0 0.1
2015-Jan-23 18:10N 53°29' W 003°26'0 0.0
2015-Jan-23 17:28N 53°29' W 003°26'0 0.0
2015-Jan-23 16:28N 53°29' W 003°26'0 0.0
2015-Jan-23 15:28N 53°29' W 003°26'0 0.0
2015-Jan-23 14:22N 53°29' W 003°26'0 0.0
2015-Jan-23 12:28N 53°29' W 003°26'0 0.1
2015-Jan-23 11:22N 53°29' W 003°26'0 0.0
2015-Jan-23 09:28N 53°29' W 003°26'0 0.1
2015-Jan-23 08:22N 53°29' W 003°26'0 0.1
2015-Jan-23 07:16N 53°29' W 003°26'0 0.0
2015-Jan-23 06:28N 53°29' W 003°26'0 0.0
2015-Jan-23 05:28N 53°29' W 003°26'0 0.0
2015-Jan-23 04:28N 53°29' W 003°26'0 0.0
2015-Jan-23 03:22N 53°29' W 003°26'0 0.0
2015-Jan-23 02:28N 53°29' W 003°26'0 0.0
2015-Jan-23 01:22N 53°29' W 003°26'  
Track history (hours):
 
Tides and Currents Weather Stations Pressure Air Temp Water Temp Dewpoint Dewpoint Depression Visibility Wind Speed Wind Dir Waves Ship Positions

Autumn

Last reported at 2015-Feb-02 00:29 UTC. Time now 2015-Feb-02 01:53 UTC.
Position N 51°53' E 003°28'.

Length 129 m; draft 6.3 m.

Type: Tanker. MMSI: 538003323.

Date/timePositionNaut miles runAvg speedWind from/ knotsBaromVisibWave heightAir tempDewpointWater temp
2015-Feb-02 00:29N 51°53' E 003°28'0 0.1
2015-Feb-01 22:26N 51°53' E 003°28'0 0.0
2015-Feb-01 20:08N 51°53' E 003°27'0 0.0
2015-Feb-01 19:32N 51°53' E 003°27'0 0.0
2015-Feb-01 18:29N 51°53' E 003°27'0 0.0
2015-Feb-01 16:32N 51°53' E 003°27'0 0.0
2015-Feb-01 08:32N 51°53' E 003°27'0 0.0
2015-Feb-01 07:32N 51°53' E 003°27'0 0.0
2015-Feb-01 06:29N 51°53' E 003°27'6 6.5
2015-Feb-01 05:33N 51°49' E 003°20'8 8.2
2015-Feb-01 04:34N 51°41' E 003°17'1211.7
2015-Feb-01 03:33N 51°31' E 003°26'1010.1
2015-Feb-01 02:34N 51°26' E 003°41'1110.5
2015-Feb-01 01:34N 51°24' E 003°57'9 9.2
2015-Feb-01 00:33N 51°24' E 004°12'5 4.5
2015-Jan-31 23:33N 51°21' E 004°17'0 0.1
2015-Jan-31 19:28N 51°20' E 004°18'0 0.0
2015-Jan-31 18:10N 51°20' E 004°18'0 0.0
2015-Jan-31 14:28N 51°20' E 004°18'0 0.0
2015-Jan-31 12:25N 51°20' E 004°18'0 0.0
2015-Jan-31 10:28N 51°20' E 004°18'0 0.0
2015-Jan-31 09:28N 51°20' E 004°18'0 0.0
2015-Jan-31 08:19N 51°20' E 004°18'0 0.0
2015-Jan-31 06:10N 51°20' E 004°18'0 0.0
2015-Jan-31 05:31N 51°20' E 004°18'0 0.0
2015-Jan-31 03:31N 51°20' E 004°18'0 0.0
2015-Jan-31 02:13N 51°20' E 004°18'0 0.0
2015-Jan-31 01:25N 51°20' E 004°18'0 0.0
2015-Jan-31 00:07N 51°20' E 004°18'0 0.0
2015-Jan-30 23:13N 51°20' E 004°18'0 0.0
2015-Jan-30 22:25N 51°20' E 004°18'0 0.0
2015-Jan-30 21:33N 51°20' E 004°18'0 0.4
2015-Jan-30 20:33N 51°21' E 004°17'0 0.2
2015-Jan-30 19:34N 51°21' E 004°17'6 6.1
2015-Jan-30 18:33N 51°22' E 004°07'8 7.6
2015-Jan-30 17:33N 51°22' E 003°55'9 9.2
2015-Jan-30 16:33N 51°25' E 003°42'9 8.5
2015-Jan-30 15:33N 51°25' E 003°28'10 9.9
2015-Jan-30 14:33N 51°24' E 003°12'1111.3
2015-Jan-30 13:33N 51°22' E 002°54'9 8.7
2015-Jan-30 12:32N 51°22' E 002°40'1 0.9
2015-Jan-30 11:31N 51°22' E 002°39'1212.2
2015-Jan-30 10:30N 51°19' E 002°20'1414.3
2015-Jan-30 09:34N 51°12' E 002°01'1414.3
2015-Jan-30 08:34N 51°04' E 001°42'1514.6
2015-Jan-30 07:32N 50°52' E 001°28'281 8.2
2015-Jan-28 21:26N 51°56' W 005°50'1011.8
2015-Jan-28 20:33N 52°05' W 005°45'1312.6
2015-Jan-28 19:33N 52°17' W 005°38'96 8.6
2015-Jan-28 08:22N 53°34' W 004°01'911.0
2015-Jan-28 07:32N 53°34' W 003°46'1711.4
2015-Jan-28 06:05N 53°32' W 003°18'5 8.9
2015-Jan-28 05:33N 53°32' W 003°11'1110.5
2015-Jan-28 04:33N 53°23' W 002°60'4 4.4
2015-Jan-28 03:33N 53°19' W 002°57'3 3.0
2015-Jan-28 02:33N 53°17' W 002°53'  
2015-Jan-24 04:27N 53°17' W 002°52'3 3.9
2015-Jan-24 03:33N 53°19' W 002°57'3 3.1
2015-Jan-24 02:33N 53°22' W 002°59'7 6.9
2015-Jan-24 01:33N 53°28' W 003°04'7 6.8
2015-Jan-24 00:33N 53°31' W 003°15'7 6.3
2015-Jan-23 23:29N 53°32' W 003°26'2 2.4
2015-Jan-23 22:29N 53°32' W 003°22'1 1.3
2015-Jan-23 21:33N 53°30' W 003°22'3 2.4
2015-Jan-23 20:28N 53°29' W 003°26'0 0.0
2015-Jan-23 19:10N 53°29' W 003°26'0 0.1
2015-Jan-23 18:10N 53°29' W 003°26'0 0.0
2015-Jan-23 17:28N 53°29' W 003°26'0 0.0
2015-Jan-23 16:28N 53°29' W 003°26'0 0.0
2015-Jan-23 15:28N 53°29' W 003°26'0 0.0
2015-Jan-23 14:22N 53°29' W 003°26'0 0.0
2015-Jan-23 12:28N 53°29' W 003°26'0 0.1
2015-Jan-23 11:22N 53°29' W 003°26'0 0.0
2015-Jan-23 09:28N 53°29' W 003°26'0 0.1
2015-Jan-23 08:22N 53°29' W 003°26'0 0.1
2015-Jan-23 07:16N 53°29' W 003°26'0 0.0
2015-Jan-23 06:28N 53°29' W 003°26'0 0.0
2015-Jan-23 05:28N 53°29' W 003°26'0 0.0
2015-Jan-23 04:28N 53°29' W 003°26'0 0.0
2015-Jan-23 03:22N 53°29' W 003°26'0 0.0
2015-Jan-23 02:28N 53°29' W 003°26'0 0.0
2015-Jan-23 01:22N 53°29' W 003°26'  

Dump ship's entire track history